sensor_id;sensor_type;location;lat;lon;timestamp;P1;P2;P0
65383;PMS5003;51986;52.788;41.368;2023-07-13T00:02:20;37.00;31.00;25.00
65383;PMS5003;51986;52.788;41.368;2023-07-13T00:04:47;36.00;31.00;25.00
65383;PMS5003;51986;52.788;41.368;2023-07-13T00:07:14;35.50;30.50;24.00
65383;PMS5003;51986;52.788;41.368;2023-07-13T00:09:41;34.00;29.00;23.00
65383;PMS5003;51986;52.788;41.368;2023-07-13T00:12:28;34.00;29.00;23.00
65383;PMS5003;51986;52.788;41.368;2023-07-13T00:15:04;33.00;28.00;23.00
65383;PMS5003;51986;52.788;41.368;2023-07-13T00:17:34;36.50;31.00;25.00
65383;PMS5003;51986;52.788;41.368;2023-07-13T00:20:01;34.00;29.00;23.50
65383;PMS5003;51986;52.788;41.368;2023-07-13T00:22:28;34.00;29.00;24.00
65383;PMS5003;51986;52.788;41.368;2023-07-13T00:24:55;36.50;31.50;25.00
65383;PMS5003;51986;52.788;41.368;2023-07-13T00:27:23;34.00;29.00;23.00
65383;PMS5003;51986;52.788;41.368;2023-07-13T00:29:51;36.00;30.00;25.00
65383;PMS5003;51986;52.788;41.368;2023-07-13T00:32:18;33.00;28.00;23.00
65383;PMS5003;51986;52.788;41.368;2023-07-13T00:34:45;35.50;30.00;24.75
65383;PMS5003;51986;52.788;41.368;2023-07-13T00:37:12;35.00;30.00;24.00
65383;PMS5003;51986;52.788;41.368;2023-07-13T00:39:39;32.00;28.00;23.00
65383;PMS5003;51986;52.788;41.368;2023-07-13T00:42:07;33.00;28.00;23.00
65383;PMS5003;51986;52.788;41.368;2023-07-13T00:44:34;34.00;29.00;23.00
65383;PMS5003;51986;52.788;41.368;2023-07-13T00:47:01;34.00;29.00;23.00
65383;PMS5003;51986;52.788;41.368;2023-07-13T00:49:29;36.00;30.75;25.00
65383;PMS5003;51986;52.788;41.368;2023-07-13T00:52:06;34.00;29.00;23.00
65383;PMS5003;51986;52.788;41.368;2023-07-13T00:54:41;37.00;31.00;24.00
65383;PMS5003;51986;52.788;41.368;2023-07-13T00:57:16;37.00;31.00;24.00
65383;PMS5003;51986;52.788;41.368;2023-07-13T00:59:52;35.00;29.00;23.50
65383;PMS5003;51986;52.788;41.368;2023-07-13T01:02:23;34.50;29.75;23.75
65383;PMS5003;51986;52.788;41.368;2023-07-13T01:04:52;38.00;31.00;25.50
65383;PMS5003;51986;52.788;41.368;2023-07-13T01:07:19;36.00;30.00;23.50
65383;PMS5003;51986;52.788;41.368;2023-07-13T01:09:46;34.50;29.00;23.00
65383;PMS5003;51986;52.788;41.368;2023-07-13T01:12:13;36.00;30.25;25.00
65383;PMS5003;51986;52.788;41.368;2023-07-13T01:14:40;34.00;29.00;23.00
65383;PMS5003;51986;52.788;41.368;2023-07-13T01:17:08;36.00;31.00;25.00
65383;PMS5003;51986;52.788;41.368;2023-07-13T01:19:44;34.00;29.00;23.00
65383;PMS5003;51986;52.788;41.368;2023-07-13T01:22:13;35.00;30.00;23.50
65383;PMS5003;51986;52.788;41.368;2023-07-13T01:24:42;34.00;29.00;23.50
65383;PMS5003;51986;52.788;41.368;2023-07-13T01:27:12;34.00;29.00;23.50
65383;PMS5003;51986;52.788;41.368;2023-07-13T01:29:41;36.00;30.00;25.00
65383;PMS5003;51986;52.788;41.368;2023-07-13T01:32:11;34.00;29.00;24.00
65383;PMS5003;51986;52.788;41.368;2023-07-13T01:34:41;34.00;29.00;24.00
65383;PMS5003;51986;52.788;41.368;2023-07-13T01:37:09;34.00;29.00;24.00
65383;PMS5003;51986;52.788;41.368;2023-07-13T01:39:37;36.00;30.00;24.00
65383;PMS5003;51986;52.788;41.368;2023-07-13T01:42:04;34.00;28.00;23.00
65383;PMS5003;51986;52.788;41.368;2023-07-13T01:44:31;34.50;28.50;23.00
65383;PMS5003;51986;52.788;41.368;2023-07-13T01:46:58;34.50;29.25;24.00
65383;PMS5003;51986;52.788;41.368;2023-07-13T01:49:25;37.75;32.75;26.00
65383;PMS5003;51986;52.788;41.368;2023-07-13T01:51:52;37.00;32.00;26.00
65383;PMS5003;51986;52.788;41.368;2023-07-13T01:54:19;35.00;30.00;23.00
65383;PMS5003;51986;52.788;41.368;2023-07-13T01:56:46;35.00;29.00;23.00
65383;PMS5003;51986;52.788;41.368;2023-07-13T01:59:13;34.50;29.50;23.50
65383;PMS5003;51986;52.788;41.368;2023-07-13T02:01:40;35.00;29.00;23.50
65383;PMS5003;51986;52.788;41.368;2023-07-13T02:04:07;34.00;29.00;23.50
65383;PMS5003;51986;52.788;41.368;2023-07-13T02:06:34;37.00;32.00;25.00
65383;PMS5003;51986;52.788;41.368;2023-07-13T02:09:01;37.75;31.00;25.00
65383;PMS5003;51986;52.788;41.368;2023-07-13T02:11:28;36.00;30.00;24.00
65383;PMS5003;51986;52.788;41.368;2023-07-13T02:13:55;35.00;29.00;23.00
65383;PMS5003;51986;52.788;41.368;2023-07-13T02:16:22;35.00;29.00;23.00
65383;PMS5003;51986;52.788;41.368;2023-07-13T02:18:49;35.00;30.00;24.00
65383;PMS5003;51986;52.788;41.368;2023-07-13T02:21:16;38.00;32.00;25.00
65383;PMS5003;51986;52.788;41.368;2023-07-13T02:23:43;36.00;29.50;23.00
65383;PMS5003;51986;52.788;41.368;2023-07-13T02:26:10;35.00;30.00;23.00
65383;PMS5003;51986;52.788;41.368;2023-07-13T02:28:37;35.00;29.00;23.00
65383;PMS5003;51986;52.788;41.368;2023-07-13T02:31:06;37.00;31.00;25.00
65383;PMS5003;51986;52.788;41.368;2023-07-13T02:33:34;35.00;29.00;23.50
65383;PMS5003;51986;52.788;41.368;2023-07-13T02:36:01;35.00;30.00;23.50
65383;PMS5003;51986;52.788;41.368;2023-07-13T02:38:28;35.00;30.00;23.00
65383;PMS5003;51986;52.788;41.368;2023-07-13T02:40:55;35.00;30.00;24.00
65383;PMS5003;51986;52.788;41.368;2023-07-13T02:43:22;36.00;30.50;24.00
65383;PMS5003;51986;52.788;41.368;2023-07-13T02:45:49;37.00;32.00;25.00
65383;PMS5003;51986;52.788;41.368;2023-07-13T02:48:17;35.00;30.00;23.50
65383;PMS5003;51986;52.788;41.368;2023-07-13T02:50:44;37.00;32.00;26.00
65383;PMS5003;51986;52.788;41.368;2023-07-13T02:53:11;34.50;30.00;23.00
65383;PMS5003;51986;52.788;41.368;2023-07-13T02:55:39;35.00;30.00;23.50
65383;PMS5003;51986;52.788;41.368;2023-07-13T02:58:06;35.00;30.00;23.50
65383;PMS5003;51986;52.788;41.368;2023-07-13T03:00:33;34.00;29.00;23.00
65383;PMS5003;51986;52.788;41.368;2023-07-13T03:03:00;34.25;29.25;24.00
65383;PMS5003;51986;52.788;41.368;2023-07-13T03:05:28;37.75;32.25;26.00
65383;PMS5003;51986;52.788;41.368;2023-07-13T03:07:56;36.00;30.50;25.00
65383;PMS5003;51986;52.788;41.368;2023-07-13T03:10:23;36.00;30.00;24.00
65383;PMS5003;51986;52.788;41.368;2023-07-13T03:12:51;35.00;30.00;24.00
65383;PMS5003;51986;52.788;41.368;2023-07-13T03:15:25;35.50;30.00;24.00
65383;PMS5003;51986;52.788;41.368;2023-07-13T03:17:54;36.50;31.00;24.00
65383;PMS5003;51986;52.788;41.368;2023-07-13T03:20:21;38.50;32.50;26.00
65383;PMS5003;51986;52.788;41.368;2023-07-13T03:22:48;36.50;31.00;26.00
65383;PMS5003;51986;52.788;41.368;2023-07-13T03:25:16;38.50;32.00;26.00
65383;PMS5003;51986;52.788;41.368;2023-07-13T03:27:43;38.00;33.00;26.50
65383;PMS5003;51986;52.788;41.368;2023-07-13T03:30:10;38.00;32.00;26.00
65383;PMS5003;51986;52.788;41.368;2023-07-13T03:32:39;42.00;35.00;29.00
65383;PMS5003;51986;52.788;41.368;2023-07-13T03:35:06;39.50;33.50;26.50
65383;PMS5003;51986;52.788;41.368;2023-07-13T03:37:36;40.75;34.50;27.00
65383;PMS5003;51986;52.788;41.368;2023-07-13T03:40:03;39.75;33.50;26.50
65383;PMS5003;51986;52.788;41.368;2023-07-13T03:42:30;40.50;34.00;27.50
65383;PMS5003;51986;52.788;41.368;2023-07-13T03:44:57;43.00;36.50;28.00
65383;PMS5003;51986;52.788;41.368;2023-07-13T03:47:25;43.00;36.00;29.00
65383;PMS5003;51986;52.788;41.368;2023-07-13T03:49:52;44.00;38.00;30.00
65383;PMS5003;51986;52.788;41.368;2023-07-13T03:52:19;43.50;36.50;29.00
65383;PMS5003;51986;52.788;41.368;2023-07-13T03:54:47;43.50;37.00;28.50
65383;PMS5003;51986;52.788;41.368;2023-07-13T03:57:15;43.00;36.00;28.50
65383;PMS5003;51986;52.788;41.368;2023-07-13T03:59:42;39.25;33.50;27.00
65383;PMS5003;51986;52.788;41.368;2023-07-13T04:02:09;38.00;33.00;26.00
65383;PMS5003;51986;52.788;41.368;2023-07-13T04:04:37;38.50;33.00;26.50
65383;PMS5003;51986;52.788;41.368;2023-07-13T04:07:05;41.00;34.50;27.50
65383;PMS5003;51986;52.788;41.368;2023-07-13T04:09:32;42.00;36.00;28.50
65383;PMS5003;51986;52.788;41.368;2023-07-13T04:11:59;41.00;35.00;28.00
65383;PMS5003;51986;52.788;41.368;2023-07-13T04:14:27;43.00;36.50;29.00
65383;PMS5003;51986;52.788;41.368;2023-07-13T04:16:54;43.00;37.00;30.00
65383;PMS5003;51986;52.788;41.368;2023-07-13T04:19:21;44.00;37.00;30.00
65383;PMS5003;51986;52.788;41.368;2023-07-13T04:21:48;44.00;37.00;30.00
65383;PMS5003;51986;52.788;41.368;2023-07-13T04:24:15;43.50;36.00;29.50
65383;PMS5003;51986;52.788;41.368;2023-07-13T04:26:42;41.00;34.00;28.00
65383;PMS5003;51986;52.788;41.368;2023-07-13T04:29:09;41.50;35.50;29.00
65383;PMS5003;51986;52.788;41.368;2023-07-13T04:31:36;42.50;35.50;29.00
65383;PMS5003;51986;52.788;41.368;2023-07-13T04:34:03;41.50;34.50;29.00
65383;PMS5003;51986;52.788;41.368;2023-07-13T04:36:30;42.00;34.50;28.00
65383;PMS5003;51986;52.788;41.368;2023-07-13T04:38:58;41.00;34.00;27.50
65383;PMS5003;51986;52.788;41.368;2023-07-13T04:41:25;42.00;35.00;27.50
65383;PMS5003;51986;52.788;41.368;2023-07-13T04:43:52;40.00;34.00;27.50
65383;PMS5003;51986;52.788;41.368;2023-07-13T04:46:22;41.00;34.50;27.50
65383;PMS5003;51986;52.788;41.368;2023-07-13T04:48:49;41.50;35.00;28.50
65383;PMS5003;51986;52.788;41.368;2023-07-13T04:51:16;41.00;35.50;28.00
65383;PMS5003;51986;52.788;41.368;2023-07-13T04:53:43;38.00;33.00;26.00
65383;PMS5003;51986;52.788;41.368;2023-07-13T04:56:11;42.50;36.00;28.00
65383;PMS5003;51986;52.788;41.368;2023-07-13T04:58:38;41.50;35.50;27.75
65383;PMS5003;51986;52.788;41.368;2023-07-13T05:01:05;41.50;36.00;28.50
65383;PMS5003;51986;52.788;41.368;2023-07-13T05:03:33;42.00;35.00;28.50
65383;PMS5003;51986;52.788;41.368;2023-07-13T05:06:02;40.00;34.00;27.00
65383;PMS5003;51986;52.788;41.368;2023-07-13T05:08:31;42.00;35.00;29.00
65383;PMS5003;51986;52.788;41.368;2023-07-13T05:11:01;41.00;35.50;28.25
65383;PMS5003;51986;52.788;41.368;2023-07-13T05:13:30;39.50;33.00;27.00
65383;PMS5003;51986;52.788;41.368;2023-07-13T05:16:01;39.00;33.50;27.50
65383;PMS5003;51986;52.788;41.368;2023-07-13T05:18:30;41.50;35.00;29.00
65383;PMS5003;51986;52.788;41.368;2023-07-13T05:21:02;40.50;35.00;28.00
65383;PMS5003;51986;52.788;41.368;2023-07-13T05:23:31;37.50;32.50;26.00
65383;PMS5003;51986;52.788;41.368;2023-07-13T05:26:00;39.75;34.50;27.50
65383;PMS5003;51986;52.788;41.368;2023-07-13T05:28:30;39.00;34.00;26.50
65383;PMS5003;51986;52.788;41.368;2023-07-13T05:30:58;41.00;34.00;27.25
65383;PMS5003;51986;52.788;41.368;2023-07-13T05:33:25;38.25;33.00;26.00
65383;PMS5003;51986;52.788;41.368;2023-07-13T05:35:52;40.00;35.00;28.00
65383;PMS5003;51986;52.788;41.368;2023-07-13T05:38:20;39.00;33.50;26.50
65383;PMS5003;51986;52.788;41.368;2023-07-13T05:40:47;37.00;31.50;25.00
65383;PMS5003;51986;52.788;41.368;2023-07-13T05:43:14;38.75;33.00;26.50
65383;PMS5003;51986;52.788;41.368;2023-07-13T05:45:42;40.50;34.00;27.00
65383;PMS5003;51986;52.788;41.368;2023-07-13T05:48:09;40.50;34.50;28.00
65383;PMS5003;51986;52.788;41.368;2023-07-13T05:50:36;39.50;33.50;26.50
65383;PMS5003;51986;52.788;41.368;2023-07-13T05:53:03;38.00;33.00;26.50
65383;PMS5003;51986;52.788;41.368;2023-07-13T05:55:30;39.00;33.00;26.50
65383;PMS5003;51986;52.788;41.368;2023-07-13T05:57:57;40.50;33.50;27.50
65383;PMS5003;51986;52.788;41.368;2023-07-13T06:00:25;39.00;32.50;25.50
65383;PMS5003;51986;52.788;41.368;2023-07-13T06:02:53;39.00;33.00;26.00
65383;PMS5003;51986;52.788;41.368;2023-07-13T06:05:20;41.00;35.00;28.00
65383;PMS5003;51986;52.788;41.368;2023-07-13T06:07:47;42.00;34.50;28.50
65383;PMS5003;51986;52.788;41.368;2023-07-13T06:10:14;39.00;32.00;27.00
65383;PMS5003;51986;52.788;41.368;2023-07-13T06:12:41;40.00;33.00;27.00
65383;PMS5003;51986;52.788;41.368;2023-07-13T06:15:08;39.25;33.25;27.00
65383;PMS5003;51986;52.788;41.368;2023-07-13T06:17:35;42.00;36.00;28.00
65383;PMS5003;51986;52.788;41.368;2023-07-13T06:20:02;40.00;34.25;28.25
65383;PMS5003;51986;52.788;41.368;2023-07-13T06:22:30;39.00;33.00;27.50
65383;PMS5003;51986;52.788;41.368;2023-07-13T06:24:57;38.00;32.00;26.00
65383;PMS5003;51986;52.788;41.368;2023-07-13T06:27:24;37.50;32.50;26.50
65383;PMS5003;51986;52.788;41.368;2023-07-13T06:29:52;39.00;32.50;26.50
65383;PMS5003;51986;52.788;41.368;2023-07-13T06:32:19;37.50;31.50;26.00
65383;PMS5003;51986;52.788;41.368;2023-07-13T06:34:46;38.00;32.00;25.75
65383;PMS5003;51986;52.788;41.368;2023-07-13T06:37:13;39.25;33.00;26.50
65383;PMS5003;51986;52.788;41.368;2023-07-13T06:39:40;39.00;33.00;26.00
65383;PMS5003;51986;52.788;41.368;2023-07-13T06:42:07;39.00;33.00;26.50
65383;PMS5003;51986;52.788;41.368;2023-07-13T06:44:34;39.50;33.50;26.50
65383;PMS5003;51986;52.788;41.368;2023-07-13T06:47:01;39.50;33.50;25.75
65383;PMS5003;51986;52.788;41.368;2023-07-13T06:49:28;39.00;33.00;26.50
65383;PMS5003;51986;52.788;41.368;2023-07-13T06:51:55;38.00;32.00;26.00
65383;PMS5003;51986;52.788;41.368;2023-07-13T06:54:22;41.00;34.50;28.75
65383;PMS5003;51986;52.788;41.368;2023-07-13T06:56:49;41.00;34.50;28.50
65383;PMS5003;51986;52.788;41.368;2023-07-13T06:59:16;40.00;34.00;28.00
65383;PMS5003;51986;52.788;41.368;2023-07-13T07:01:43;39.50;34.00;28.00
65383;PMS5003;51986;52.788;41.368;2023-07-13T07:04:10;40.50;34.50;28.00
65383;PMS5003;51986;52.788;41.368;2023-07-13T07:06:37;40.75;34.00;27.50
65383;PMS5003;51986;52.788;41.368;2023-07-13T07:09:04;42.50;35.50;29.50
65383;PMS5003;51986;52.788;41.368;2023-07-13T07:11:31;39.00;33.00;27.50
65383;PMS5003;51986;52.788;41.368;2023-07-13T07:13:58;40.00;34.00;28.50
65383;PMS5003;51986;52.788;41.368;2023-07-13T07:16:25;39.00;33.00;27.00
65383;PMS5003;51986;52.788;41.368;2023-07-13T07:18:52;38.00;32.00;26.00
65383;PMS5003;51986;52.788;41.368;2023-07-13T07:21:19;41.00;35.00;28.00
65383;PMS5003;51986;52.788;41.368;2023-07-13T07:23:46;40.50;34.50;27.50
65383;PMS5003;51986;52.788;41.368;2023-07-13T07:26:13;38.00;32.00;26.00
65383;PMS5003;51986;52.788;41.368;2023-07-13T07:28:40;41.00;34.50;28.00
65383;PMS5003;51986;52.788;41.368;2023-07-13T07:31:11;38.50;32.50;26.50
65383;PMS5003;51986;52.788;41.368;2023-07-13T07:33:41;38.00;32.00;26.00
65383;PMS5003;51986;52.788;41.368;2023-07-13T07:36:08;38.00;32.00;26.00
65383;PMS5003;51986;52.788;41.368;2023-07-13T07:38:38;38.00;32.00;26.00
65383;PMS5003;51986;52.788;41.368;2023-07-13T07:41:05;38.00;32.50;26.50
65383;PMS5003;51986;52.788;41.368;2023-07-13T07:43:35;38.00;32.00;26.00
65383;PMS5003;51986;52.788;41.368;2023-07-13T07:46:02;38.50;32.50;26.50
65383;PMS5003;51986;52.788;41.368;2023-07-13T07:48:30;40.50;34.50;27.50
65383;PMS5003;51986;52.788;41.368;2023-07-13T07:50:57;39.00;33.00;27.00
65383;PMS5003;51986;52.788;41.368;2023-07-13T07:53:24;39.00;32.00;26.00
65383;PMS5003;51986;52.788;41.368;2023-07-13T07:55:51;40.00;33.00;26.75
65383;PMS5003;51986;52.788;41.368;2023-07-13T07:58:21;43.00;36.00;29.00
65383;PMS5003;51986;52.788;41.368;2023-07-13T08:00:51;40.00;34.00;27.50
65383;PMS5003;51986;52.788;41.368;2023-07-13T08:03:21;39.00;33.00;27.00
65383;PMS5003;51986;52.788;41.368;2023-07-13T08:05:53;38.50;32.50;26.50
65383;PMS5003;51986;52.788;41.368;2023-07-13T08:08:24;39.00;33.00;27.00
65383;PMS5003;51986;52.788;41.368;2023-07-13T08:10:51;38.50;32.50;26.50
65383;PMS5003;51986;52.788;41.368;2023-07-13T08:13:23;40.00;33.50;27.50
65383;PMS5003;51986;52.788;41.368;2023-07-13T08:15:50;39.50;33.00;26.50
65383;PMS5003;51986;52.788;41.368;2023-07-13T08:18:17;40.50;33.50;27.50
65383;PMS5003;51986;52.788;41.368;2023-07-13T08:20:44;38.50;32.50;26.50
65383;PMS5003;51986;52.788;41.368;2023-07-13T08:23:11;40.50;35.00;28.00
65383;PMS5003;51986;52.788;41.368;2023-07-13T08:25:38;40.50;34.50;28.50
65383;PMS5003;51986;52.788;41.368;2023-07-13T08:28:05;38.50;33.00;26.50
65383;PMS5003;51986;52.788;41.368;2023-07-13T08:30:32;38.50;33.00;26.50
65383;PMS5003;51986;52.788;41.368;2023-07-13T08:32:59;38.50;32.50;26.50
65383;PMS5003;51986;52.788;41.368;2023-07-13T08:35:26;41.00;35.00;28.00
65383;PMS5003;51986;52.788;41.368;2023-07-13T08:37:53;41.50;34.50;27.50
65383;PMS5003;51986;52.788;41.368;2023-07-13T08:40:22;39.00;32.50;26.00
65383;PMS5003;51986;52.788;41.368;2023-07-13T08:42:57;38.00;32.00;26.00
65383;PMS5003;51986;52.788;41.368;2023-07-13T08:48:11;37.50;32.00;25.50
65383;PMS5003;51986;52.788;41.368;2023-07-13T08:53:36;38.25;33.00;26.00
65383;PMS5003;51986;52.788;41.368;2023-07-13T08:56:27;37.50;32.50;26.50
65383;PMS5003;51986;52.788;41.368;2023-07-13T08:58:56;37.50;32.00;26.00
65383;PMS5003;51986;52.788;41.368;2023-07-13T09:04:46;38.00;32.00;26.00
65383;PMS5003;51986;52.788;41.368;2023-07-13T09:15:34;37.00;31.50;25.50
65383;PMS5003;51986;52.788;41.368;2023-07-13T09:20:48;36.00;31.00;25.00
65383;PMS5003;51986;52.788;41.368;2023-07-13T09:23:20;37.50;31.50;26.00
65383;PMS5003;51986;52.788;41.368;2023-07-13T09:25:51;38.00;32.00;25.00
65383;PMS5003;51986;52.788;41.368;2023-07-13T09:28:24;37.25;31.00;25.00
65383;PMS5003;51986;52.788;41.368;2023-07-13T09:31:06;37.00;31.00;25.00
65383;PMS5003;51986;52.788;41.368;2023-07-13T09:33:47;40.00;34.00;27.75
65383;PMS5003;51986;52.788;41.368;2023-07-13T09:36:28;37.00;32.00;25.00
65383;PMS5003;51986;52.788;41.368;2023-07-13T09:41:29;37.00;32.00;25.00
65383;PMS5003;51986;52.788;41.368;2023-07-13T09:44:12;37.00;31.00;25.00
65383;PMS5003;51986;52.788;41.368;2023-07-13T09:46:44;37.00;31.00;25.00
65383;PMS5003;51986;52.788;41.368;2023-07-13T09:49:25;38.00;32.00;25.75
65383;PMS5003;51986;52.788;41.368;2023-07-13T09:52:05;39.50;32.00;26.00
65383;PMS5003;51986;52.788;41.368;2023-07-13T09:54:34;40.50;33.50;26.50
65383;PMS5003;51986;52.788;41.368;2023-07-13T09:57:08;38.50;32.00;26.50
65383;PMS5003;51986;52.788;41.368;2023-07-13T09:59:46;37.75;32.00;26.00
65383;PMS5003;51986;52.788;41.368;2023-07-13T10:02:35;37.50;32.00;26.00
65383;PMS5003;51986;52.788;41.368;2023-07-13T10:05:04;38.50;32.50;26.00
65383;PMS5003;51986;52.788;41.368;2023-07-13T10:07:39;38.00;32.00;26.00
65383;PMS5003;51986;52.788;41.368;2023-07-13T10:10:16;38.25;32.25;26.00
65383;PMS5003;51986;52.788;41.368;2023-07-13T10:12:48;40.25;34.00;28.00
65383;PMS5003;51986;52.788;41.368;2023-07-13T10:15:17;38.50;32.50;26.50
65383;PMS5003;51986;52.788;41.368;2023-07-13T10:17:51;38.00;31.00;25.00
65383;PMS5003;51986;52.788;41.368;2023-07-13T10:20:20;37.75;31.75;26.50
65383;PMS5003;51986;52.788;41.368;2023-07-13T10:22:55;36.00;31.00;25.00
65383;PMS5003;51986;52.788;41.368;2023-07-13T10:25:32;37.75;32.50;25.75
65383;PMS5003;51986;52.788;41.368;2023-07-13T10:28:51;40.00;34.00;28.00
65383;PMS5003;51986;52.788;41.368;2023-07-13T10:31:02;39.00;32.50;26.00
65383;PMS5003;51986;52.788;41.368;2023-07-13T10:33:37;37.00;32.00;25.75
65383;PMS5003;51986;52.788;41.368;2023-07-13T10:36:15;38.00;32.00;26.50
65383;PMS5003;51986;52.788;41.368;2023-07-13T10:38:50;38.00;32.50;26.50
65383;PMS5003;51986;52.788;41.368;2023-07-13T10:41:20;37.00;32.00;26.00
65383;PMS5003;51986;52.788;41.368;2023-07-13T10:43:54;41.00;34.00;28.00
65383;PMS5003;51986;52.788;41.368;2023-07-13T10:46:23;37.00;32.00;25.00
65383;PMS5003;51986;52.788;41.368;2023-07-13T10:48:54;38.50;32.00;25.50
65383;PMS5003;51986;52.788;41.368;2023-07-13T10:51:28;37.50;31.50;24.50
65383;PMS5003;51986;52.788;41.368;2023-07-13T10:54:16;38.25;32.00;26.00
65383;PMS5003;51986;52.788;41.368;2023-07-13T10:56:52;41.00;35.00;28.50
65383;PMS5003;51986;52.788;41.368;2023-07-13T10:59:33;40.00;33.50;27.00
65383;PMS5003;51986;52.788;41.368;2023-07-13T11:04:49;39.00;32.50;27.50
65383;PMS5003;51986;52.788;41.368;2023-07-13T11:07:27;38.50;32.50;26.50
65383;PMS5003;51986;52.788;41.368;2023-07-13T11:09:57;39.00;33.00;28.00
65383;PMS5003;51986;52.788;41.368;2023-07-13T11:12:27;42.00;35.00;30.00
65383;PMS5003;51986;52.788;41.368;2023-07-13T11:15:15;40.50;33.75;27.50
65383;PMS5003;51986;52.788;41.368;2023-07-13T11:17:55;41.00;34.00;28.00
65383;PMS5003;51986;52.788;41.368;2023-07-13T11:20:23;37.00;31.50;26.00
65383;PMS5003;51986;52.788;41.368;2023-07-13T11:25:43;38.00;32.00;26.00
65383;PMS5003;51986;52.788;41.368;2023-07-13T11:38:24;37.50;31.50;25.50
65383;PMS5003;51986;52.788;41.368;2023-07-13T11:40:58;40.50;34.00;27.50
65383;PMS5003;51986;52.788;41.368;2023-07-13T11:43:29;40.50;34.50;27.50
65383;PMS5003;51986;52.788;41.368;2023-07-13T11:45:56;38.00;32.50;26.50
65383;PMS5003;51986;52.788;41.368;2023-07-13T11:48:26;39.50;33.50;27.50
65383;PMS5003;51986;52.788;41.368;2023-07-13T11:50:57;42.00;34.00;28.00
65383;PMS5003;51986;52.788;41.368;2023-07-13T11:53:29;39.50;32.50;26.50
65383;PMS5003;51986;52.788;41.368;2023-07-13T11:56:11;41.25;35.00;28.00
65383;PMS5003;51986;52.788;41.368;2023-07-13T11:58:40;39.50;32.50;26.50
65383;PMS5003;51986;52.788;41.368;2023-07-13T12:01:51;38.00;32.00;26.00
65383;PMS5003;51986;52.788;41.368;2023-07-13T12:03:59;39.00;32.50;26.50
65383;PMS5003;51986;52.788;41.368;2023-07-13T12:08:57;39.50;33.50;27.50
65383;PMS5003;51986;52.788;41.368;2023-07-13T12:11:30;38.00;32.00;26.00
65383;PMS5003;51986;52.788;41.368;2023-07-13T12:14:03;41.75;34.75;29.00
65383;PMS5003;51986;52.788;41.368;2023-07-13T12:16:30;41.50;35.00;29.50
65383;PMS5003;51986;52.788;41.368;2023-07-13T12:19:00;42.00;34.50;29.50
65383;PMS5003;51986;52.788;41.368;2023-07-13T12:21:31;39.50;33.50;28.00
65383;PMS5003;51986;52.788;41.368;2023-07-13T12:24:00;38.00;32.00;26.00
65383;PMS5003;51986;52.788;41.368;2023-07-13T12:26:29;38.50;32.50;26.50
65383;PMS5003;51986;52.788;41.368;2023-07-13T12:28:58;39.00;33.00;27.50
65383;PMS5003;51986;52.788;41.368;2023-07-13T12:31:31;40.50;34.00;27.50
65383;PMS5003;51986;52.788;41.368;2023-07-13T12:34:08;38.50;32.50;26.50
65383;PMS5003;51986;52.788;41.368;2023-07-13T12:36:40;38.50;32.50;26.50
65383;PMS5003;51986;52.788;41.368;2023-07-13T12:39:13;38.00;32.00;26.00
65383;PMS5003;51986;52.788;41.368;2023-07-13T12:41:53;39.00;32.50;26.50
65383;PMS5003;51986;52.788;41.368;2023-07-13T12:44:29;38.00;32.00;26.00
65383;PMS5003;51986;52.788;41.368;2023-07-13T12:46:59;40.00;34.00;28.00
65383;PMS5003;51986;52.788;41.368;2023-07-13T12:49:32;37.50;32.00;26.00
65383;PMS5003;51986;52.788;41.368;2023-07-13T12:52:01;38.00;32.00;26.00
65383;PMS5003;51986;52.788;41.368;2023-07-13T12:54:30;37.75;32.00;25.75
65383;PMS5003;51986;52.788;41.368;2023-07-13T12:56:57;36.00;31.00;25.00
65383;PMS5003;51986;52.788;41.368;2023-07-13T12:59:29;37.00;32.00;25.00
65383;PMS5003;51986;52.788;41.368;2023-07-13T13:01:58;41.00;34.00;27.00
65383;PMS5003;51986;52.788;41.368;2023-07-13T13:04:25;38.50;32.00;25.50
65383;PMS5003;51986;52.788;41.368;2023-07-13T13:07:03;37.50;32.00;26.00
65383;PMS5003;51986;52.788;41.368;2023-07-13T13:09:32;37.00;32.00;25.00
65383;PMS5003;51986;52.788;41.368;2023-07-13T13:11:59;38.25;32.50;26.50
65383;PMS5003;51986;52.788;41.368;2023-07-13T13:14:26;38.50;32.50;26.50
65383;PMS5003;51986;52.788;41.368;2023-07-13T13:16:53;36.50;31.50;26.50
65383;PMS5003;51986;52.788;41.368;2023-07-13T13:19:22;38.50;33.50;27.00
65383;PMS5003;51986;52.788;41.368;2023-07-13T13:21:52;40.00;34.00;27.50
65383;PMS5003;51986;52.788;41.368;2023-07-13T13:24:21;38.50;33.00;26.00
65383;PMS5003;51986;52.788;41.368;2023-07-13T13:26:50;42.00;35.00;29.00
65383;PMS5003;51986;52.788;41.368;2023-07-13T13:29:22;40.50;34.50;27.50
65383;PMS5003;51986;52.788;41.368;2023-07-13T13:31:51;38.50;33.00;26.25
65383;PMS5003;51986;52.788;41.368;2023-07-13T13:34:20;38.50;32.50;27.00
65383;PMS5003;51986;52.788;41.368;2023-07-13T13:36:48;38.50;32.50;26.50
65383;PMS5003;51986;52.788;41.368;2023-07-13T13:39:20;38.50;33.00;26.00
65383;PMS5003;51986;52.788;41.368;2023-07-13T13:41:52;41.00;34.00;28.00
65383;PMS5003;51986;52.788;41.368;2023-07-13T13:44:20;37.50;31.50;26.50
65383;PMS5003;51986;52.788;41.368;2023-07-13T13:46:49;37.00;31.00;25.50
65383;PMS5003;51986;52.788;41.368;2023-07-13T13:49:22;37.00;31.50;25.50
65383;PMS5003;51986;52.788;41.368;2023-07-13T13:51:50;38.50;33.00;26.50
65383;PMS5003;51986;52.788;41.368;2023-07-13T13:54:19;38.00;32.00;26.00
65383;PMS5003;51986;52.788;41.368;2023-07-13T13:56:48;37.00;31.00;25.00
65383;PMS5003;51986;52.788;41.368;2023-07-13T13:59:16;40.00;34.00;28.00
65383;PMS5003;51986;52.788;41.368;2023-07-13T14:01:45;38.00;31.25;25.00
65383;PMS5003;51986;52.788;41.368;2023-07-13T14:04:14;40.00;33.25;26.75
65383;PMS5003;51986;52.788;41.368;2023-07-13T14:06:46;43.00;36.00;29.50
65383;PMS5003;51986;52.788;41.368;2023-07-13T14:09:14;39.75;34.00;28.00
65383;PMS5003;51986;52.788;41.368;2023-07-13T14:11:42;41.00;34.50;28.00
65383;PMS5003;51986;52.788;41.368;2023-07-13T14:14:16;38.50;33.50;27.50
65383;PMS5003;51986;52.788;41.368;2023-07-13T14:16:47;37.00;32.00;25.50
65383;PMS5003;51986;52.788;41.368;2023-07-13T14:19:15;38.50;32.00;26.00
65383;PMS5003;51986;52.788;41.368;2023-07-13T14:21:42;39.00;33.00;27.00
65383;PMS5003;51986;52.788;41.368;2023-07-13T14:24:09;38.50;32.50;26.00
65383;PMS5003;51986;52.788;41.368;2023-07-13T14:26:37;40.00;33.00;26.00
65383;PMS5003;51986;52.788;41.368;2023-07-13T14:29:11;41.00;34.50;27.50